createdAt,value
2022-10-15T00:04:24.132Z,25.60
2022-10-15T00:09:27.449Z,28.90
2022-10-15T00:14:30.553Z,26.40
2022-10-15T00:19:34.269Z,27.70
2022-10-15T00:24:37.887Z,28.60
2022-10-15T00:29:41.508Z,26.90
2022-10-15T00:34:44.611Z,21.50
2022-10-15T00:39:48.435Z,26.50
2022-10-15T00:44:54.715Z,26.30
2022-10-15T00:50:09.394Z,29.30
2022-10-15T00:55:29.086Z,27.50
2022-10-15T01:00:32.605Z,27.40
2022-10-15T01:05:36.426Z,28.70
2022-10-15T01:10:57.348Z,30.80
2022-10-15T01:21:56.093Z,26.20
2022-10-15T01:27:08.210Z,27.30
2022-10-15T01:32:27.085Z,27.20
2022-10-15T01:37:36.028Z,28.40
2022-10-15T01:42:59.613Z,26.90
2022-10-15T01:48:07.840Z,28.80
2022-10-15T01:53:14.324Z,28.90
2022-10-15T01:58:18.148Z,30.70
2022-10-15T02:03:21.359Z,25.10
2022-10-15T02:08:45.147Z,27.50
2022-10-15T02:13:48.252Z,27.90
2022-10-15T02:19:03.646Z,28.90
2022-10-15T02:24:10.342Z,25.90
2022-10-15T02:29:20.005Z,27.00
2022-10-15T02:34:28.189Z,26.70
2022-10-15T02:39:31.904Z,24.00
2022-10-15T02:44:35.259Z,26.50
2022-10-15T02:49:38.565Z,27.60
2022-10-15T02:54:41.670Z,25.90
2022-10-15T02:59:44.879Z,25.60
2022-10-15T03:04:47.987Z,26.10
2022-10-15T03:09:51.091Z,27.80
2022-10-15T03:14:54.560Z,27.30
2022-10-15T03:19:57.711Z,28.30
2022-10-15T03:25:00.817Z,29.00
2022-10-15T03:30:04.540Z,27.20
2022-10-15T03:35:08.361Z,27.40
2022-10-15T03:40:13.730Z,24.20
2022-10-15T03:45:21.024Z,27.90
2022-10-15T03:50:24.439Z,24.10
2022-10-15T03:55:27.646Z,29.20
2022-10-15T04:00:30.854Z,27.60
2022-10-15T04:05:34.062Z,29.30
2022-10-15T04:10:37.893Z,27.10
2022-10-15T04:15:40.993Z,27.50
2022-10-15T04:20:44.205Z,24.70
2022-10-15T04:25:47.409Z,27.00
2022-10-15T04:30:50.719Z,26.80
2022-10-15T04:36:08.511Z,28.80
2022-10-15T04:41:13.214Z,28.60
2022-10-15T04:46:16.629Z,26.90
2022-10-15T04:51:21.370Z,29.20
2022-10-15T04:56:25.295Z,26.40
2022-10-15T05:01:28.504Z,25.80
2022-10-15T05:06:34.081Z,28.20
2022-10-15T05:11:41.067Z,28.20
2022-10-15T05:16:44.277Z,28.00
2022-10-15T05:26:55.502Z,26.70
2022-10-15T05:31:58.611Z,28.10
2022-10-15T05:37:01.846Z,28.50
2022-10-15T05:42:05.025Z,28.50
2022-10-15T05:47:12.125Z,24.80
2022-10-15T05:52:16.167Z,29.20
2022-10-15T05:57:19.262Z,31.70
2022-10-15T06:02:22.925Z,31.60
2022-10-15T06:07:28.031Z,27.30
2022-10-15T06:12:31.240Z,31.00
2022-10-15T06:17:34.652Z,31.90
2022-10-15T06:27:45.984Z,31.80
2022-10-15T06:32:51.036Z,30.00
2022-10-15T06:37:57.107Z,25.10
2022-10-15T06:43:08.360Z,28.40
2022-10-15T06:48:11.821Z,29.90
2022-10-15T06:53:16.977Z,28.80
2022-10-15T06:58:20.184Z,29.90
2022-10-15T07:03:23.392Z,28.80
2022-10-15T07:08:26.706Z,31.60
2022-10-15T07:13:31.144Z,25.90
2022-10-15T07:18:35.682Z,29.90
2022-10-15T07:23:40.223Z,28.40
2022-10-15T07:28:43.653Z,30.80
2022-10-15T07:33:47.052Z,32.40
2022-10-15T07:38:50.256Z,29.10
2022-10-15T07:43:57.034Z,29.30
2022-10-15T07:49:00.465Z,29.90
2022-10-15T07:54:03.777Z,31.60
2022-10-15T07:59:09.033Z,33.20
2022-10-15T08:04:12.238Z,33.50
2022-10-15T08:09:15.826Z,32.20
2022-10-15T08:14:19.063Z,35.30
2022-10-15T08:19:22.377Z,34.50
2022-10-15T08:24:25.631Z,32.90
2022-10-15T08:29:28.823Z,33.60
2022-10-15T08:34:32.001Z,31.20
2022-10-15T08:39:35.924Z,32.60
2022-10-15T08:44:41.592Z,32.30
2022-10-15T08:49:47.500Z,32.70
2022-10-15T08:54:51.389Z,29.50
2022-10-15T09:00:05.042Z,28.60
2022-10-15T09:05:26.398Z,29.40
2022-10-15T09:10:43.610Z,31.90
2022-10-15T09:15:52.451Z,27.70
2022-10-15T09:20:57.134Z,25.90
2022-10-15T09:26:12.501Z,29.50
2022-10-15T09:31:20.070Z,26.90
2022-10-15T09:36:35.389Z,27.10
2022-10-15T09:41:51.910Z,26.80
2022-10-15T09:46:55.125Z,28.60
2022-10-15T09:52:16.555Z,25.30
2022-10-15T09:57:23.053Z,27.50
2022-10-15T10:02:27.667Z,25.10
2022-10-15T10:07:37.783Z,29.20
2022-10-15T10:12:44.236Z,24.60
2022-10-15T10:17:53.860Z,26.30
2022-10-15T10:23:21.374Z,25.50
2022-10-15T10:28:32.162Z,21.20
2022-10-15T10:33:49.133Z,25.70
2022-10-15T10:39:10.424Z,22.30
2022-10-15T10:44:36.982Z,23.90
2022-10-15T10:49:51.143Z,19.00
2022-10-15T10:55:01.928Z,18.90
2022-10-15T11:00:07.239Z,20.40
2022-10-15T11:05:12.535Z,21.40
2022-10-15T11:10:24.455Z,21.60
2022-10-15T11:15:31.559Z,21.70
2022-10-15T11:20:56.413Z,19.80
2022-10-15T11:26:24.051Z,19.50
2022-10-15T11:32:14.688Z,24.20
2022-10-15T11:37:58.533Z,21.10
2022-10-15T11:43:01.542Z,21.10
2022-10-15T11:48:39.768Z,22.20
2022-10-15T11:54:01.616Z,21.40
2022-10-15T11:59:18.038Z,20.10
2022-10-15T12:04:32.475Z,22.70
2022-10-15T12:09:40.646Z,22.10
2022-10-15T12:15:04.934Z,22.10
2022-10-15T12:20:15.817Z,19.90
2022-10-15T12:25:34.391Z,20.50
2022-10-15T12:30:38.114Z,17.50
2022-10-15T12:40:45.548Z,21.40
2022-10-15T12:45:51.520Z,20.40
2022-10-15T12:51:17.486Z,19.00
2022-10-15T12:56:46.679Z,18.10
2022-10-15T13:01:52.359Z,19.50
2022-10-15T13:07:04.147Z,23.10
2022-10-15T13:12:23.747Z,19.00
2022-10-15T13:17:27.365Z,21.10
2022-10-15T13:22:33.259Z,19.10
2022-10-15T13:27:37.981Z,19.40
2022-10-15T13:32:48.290Z,19.20
2022-10-15T13:37:51.567Z,21.40
2022-10-15T13:43:01.945Z,20.20
2022-10-15T13:48:12.435Z,20.70
2022-10-15T13:53:50.966Z,20.40
2022-10-15T13:58:55.179Z,21.00
2022-10-15T14:04:00.770Z,20.50
2022-10-15T14:09:24.339Z,20.60
2022-10-15T14:14:29.495Z,19.50
2022-10-15T14:19:35.743Z,21.40
2022-10-15T14:24:40.519Z,20.60
2022-10-15T14:29:46.145Z,20.80
2022-10-15T14:34:51.955Z,21.50
2022-10-15T14:40:10.120Z,24.30
2022-10-15T14:45:16.291Z,22.50
2022-10-15T14:50:20.843Z,21.40
2022-10-15T14:55:24.446Z,23.90
2022-10-15T15:00:40.762Z,21.30
2022-10-15T15:05:49.615Z,23.70
2022-10-15T15:10:57.540Z,25.60
2022-10-15T15:16:03.087Z,25.70
2022-10-15T15:21:10.752Z,25.10
2022-10-15T15:26:13.907Z,25.00
2022-10-15T15:31:18.859Z,24.10
2022-10-15T15:36:23.789Z,21.80
2022-10-15T15:41:27.424Z,23.70
2022-10-15T15:46:30.628Z,24.60
2022-10-15T15:51:33.839Z,27.90
2022-10-15T15:56:37.918Z,23.30
2022-10-15T16:06:44.589Z,23.00
2022-10-15T16:11:47.899Z,20.10
2022-10-15T16:16:51.209Z,21.60
2022-10-15T16:21:54.316Z,20.20
2022-10-15T16:26:57.524Z,20.10
2022-10-15T16:32:00.734Z,22.50
2022-10-15T16:37:04.760Z,21.80
2022-10-15T16:47:12.305Z,20.60
2022-10-15T16:52:15.510Z,19.30
2022-10-15T16:57:18.719Z,19.00
2022-10-15T17:02:22.021Z,20.60
2022-10-15T17:07:25.527Z,19.40
2022-10-15T17:12:29.066Z,18.00
2022-10-15T17:17:32.373Z,18.50
2022-10-15T17:22:35.990Z,19.40
2022-10-15T17:27:39.204Z,19.00
2022-10-15T17:32:42.406Z,17.40
2022-10-15T17:37:46.756Z,18.20
2022-10-15T17:42:49.951Z,16.80
2022-10-15T17:47:53.264Z,15.90
2022-10-15T17:52:59.474Z,14.70
2022-10-15T17:58:03.056Z,15.60
2022-10-15T18:03:06.266Z,16.90
2022-10-15T18:08:10.293Z,16.30
2022-10-15T18:13:14.224Z,16.30
2022-10-15T18:18:19.289Z,15.00
2022-10-15T18:23:25.550Z,17.00
2022-10-15T18:28:28.922Z,16.60
2022-10-15T18:33:32.551Z,16.50
2022-10-15T18:38:36.508Z,17.70
2022-10-15T18:48:44.256Z,16.90
2022-10-15T18:53:47.640Z,14.20
2022-10-15T18:58:56.117Z,16.10
2022-10-15T19:04:09.105Z,17.50
2022-10-15T19:09:19.149Z,17.40
2022-10-15T19:14:24.628Z,16.60
2022-10-15T19:19:29.105Z,17.80
2022-10-15T19:24:32.728Z,16.50
2022-10-15T19:29:38.696Z,18.00
2022-10-15T19:34:42.007Z,19.20
2022-10-15T19:39:48.595Z,18.30
2022-10-15T19:44:51.803Z,17.20
2022-10-15T19:49:55.831Z,18.60
2022-10-15T20:00:07.737Z,17.40
2022-10-15T20:05:10.987Z,18.20
2022-10-15T20:10:15.912Z,17.70
2022-10-15T20:15:19.471Z,18.40
2022-10-15T20:20:22.658Z,17.70
2022-10-15T20:25:25.868Z,17.50
2022-10-15T20:30:29.792Z,18.40
2022-10-15T20:35:36.484Z,16.30
2022-10-15T20:40:41.570Z,17.80
2022-10-15T20:45:46.642Z,18.20
2022-10-15T20:50:51.621Z,18.10
2022-10-15T20:55:55.459Z,17.30
2022-10-15T21:00:59.865Z,15.30
2022-10-15T21:06:03.104Z,17.00
2022-10-15T21:11:08.058Z,16.40
2022-10-15T21:16:11.803Z,17.90
2022-10-15T21:21:15.393Z,19.40
2022-10-15T21:26:19.221Z,18.00
2022-10-15T21:31:23.050Z,16.50
2022-10-15T21:36:28.439Z,17.90
2022-10-15T21:41:34.368Z,18.60
2022-10-15T21:46:40.689Z,18.90
2022-10-15T21:51:43.860Z,16.60
2022-10-15T21:56:47.067Z,17.70
2022-10-15T22:01:50.325Z,19.60
2022-10-15T22:06:53.586Z,20.40
2022-10-15T22:11:56.692Z,20.80
2022-10-15T22:17:00.005Z,17.70
2022-10-15T22:22:03.214Z,17.90
2022-10-15T22:27:06.524Z,17.40
2022-10-15T22:32:09.730Z,14.10
2022-10-15T22:37:13.040Z,18.80
2022-10-15T22:42:16.557Z,19.70
2022-10-15T22:47:19.763Z,18.10
2022-10-15T22:52:23.284Z,19.40
2022-10-15T22:57:26.899Z,19.70
2022-10-15T23:02:30.110Z,20.70
2022-10-15T23:07:33.212Z,19.30
2022-10-15T23:12:38.145Z,17.40
2022-10-15T23:17:41.270Z,21.20
2022-10-15T23:22:44.476Z,22.00
2022-10-15T23:27:47.787Z,22.10
2022-10-15T23:32:51.101Z,21.00
2022-10-15T23:37:54.380Z,22.30
2022-10-15T23:42:57.620Z,19.30
2022-10-15T23:48:00.826Z,19.10
2022-10-15T23:53:04.142Z,21.70
2022-10-15T23:58:08.669Z,21.60
